Milky Way — WDI8180 — position and weather

sailwx.info

Track history (hours):
 
Tides and Currents Weather Stations Pressure Air Temp Water Temp Dewpoint Dewpoint Depression Visibility Wind Speed Wind Dir Waves Ship Positions

Milky Way

Owner: Champange, Todd M, Galliano, LA. More information available from US FCC via Universal Licensing System and Coast Guard Vessel Documentation Center.

Last reported at 2017-Aug-23 12:50 UTC. Time now 2017-Sep-22 11:41 UTC.
Position N 29°34' W 092°10'.
Warning: this ship's position is 29 days out of date.

Length 24 m.

Type: Fishing. MMSI: 367736030.

Date/timePositionNaut miles runAvg speedWind from/ knotsBaromVisibWave heightAir tempDewpointWater temp
2017-Aug-23 12:50N 29°34' W 092°10'1 2.4
2017-Aug-23 12:30N 29°34' W 092°09'4 2.0
2017-Aug-23 10:38N 29°33' W 092°13'0 2.4
2017-Aug-23 10:30N 29°33' W 092°13'3 2.5
2017-Aug-23 09:16N 29°34' W 092°10'0 1.1
2017-Aug-23 09:00N 29°34' W 092°09'3 1.4
2017-Aug-23 06:56N 29°33' W 092°12'2 2.4
2017-Aug-23 06:14N 29°34' W 092°11'1 2.6
2017-Aug-23 06:00N 29°34' W 092°10'1 2.6
2017-Aug-23 05:30N 29°33' W 092°09'1 1.8
2017-Aug-23 04:41N 29°32' W 092°09'1 2.4
2017-Aug-23 04:24N 29°31' W 092°09'1 2.6
2017-Aug-23 03:58N 29°31' W 092°07'3 0.4
2017-Aug-22 20:33N 29°34' W 092°07'0 2.4
2017-Aug-22 20:30N 29°34' W 092°07'1 0.2
2017-Aug-22 14:44N 29°35' W 092°08'1 0.4
2017-Aug-22 11:27N 29°34' W 092°09'2 1.8
2017-Aug-22 10:10N 29°34' W 092°12'1 2.4
2017-Aug-22 09:54N 29°34' W 092°11'2 0.5
2017-Aug-22 05:11N 29°32' W 092°09'1 2.3
2017-Aug-22 04:58N 29°33' W 092°08'  
Track history (hours):
 
Tides and Currents Weather Stations Pressure Air Temp Water Temp Dewpoint Dewpoint Depression Visibility Wind Speed Wind Dir Waves Ship Positions

Milky Way

Owner: Champange, Todd M, Galliano, LA. More information available from US FCC via Universal Licensing System and Coast Guard Vessel Documentation Center.

Last reported at 2017-Aug-23 12:50 UTC. Time now 2017-Sep-22 11:41 UTC.
Position N 29°34' W 092°10'.
Warning: this ship's position is 29 days out of date.

Length 24 m.

Type: Fishing. MMSI: 367736030.

Date/timePositionNaut miles runAvg speedWind from/ knotsBaromVisibWave heightAir tempDewpointWater temp
2017-Aug-23 12:50N 29°34' W 092°10'1 2.4
2017-Aug-23 12:30N 29°34' W 092°09'4 2.0
2017-Aug-23 10:38N 29°33' W 092°13'0 2.4
2017-Aug-23 10:30N 29°33' W 092°13'3 2.5
2017-Aug-23 09:16N 29°34' W 092°10'0 1.1
2017-Aug-23 09:00N 29°34' W 092°09'3 1.4
2017-Aug-23 06:56N 29°33' W 092°12'2 2.4
2017-Aug-23 06:14N 29°34' W 092°11'1 2.6
2017-Aug-23 06:00N 29°34' W 092°10'1 2.6
2017-Aug-23 05:30N 29°33' W 092°09'1 1.8
2017-Aug-23 04:41N 29°32' W 092°09'1 2.4
2017-Aug-23 04:24N 29°31' W 092°09'1 2.6
2017-Aug-23 03:58N 29°31' W 092°07'3 0.4
2017-Aug-22 20:33N 29°34' W 092°07'0 2.4
2017-Aug-22 20:30N 29°34' W 092°07'1 0.2
2017-Aug-22 14:44N 29°35' W 092°08'1 0.4
2017-Aug-22 11:27N 29°34' W 092°09'2 1.8
2017-Aug-22 10:10N 29°34' W 092°12'1 2.4
2017-Aug-22 09:54N 29°34' W 092°11'2 0.5
2017-Aug-22 05:11N 29°32' W 092°09'1 2.3
2017-Aug-22 04:58N 29°33' W 092°08'  

Dump ship's entire track history